sensor_id;sensor_type;location;lat;lon;timestamp;pressure;altitude;pressure_sealevel;temperature;humidity
78016;BME280;67223;51.102;5.882;2023-04-03T00:01:28;102750.03;;;2.64;72.90
78016;BME280;67223;51.102;5.882;2023-04-03T00:03:54;102754.50;;;2.58;72.96
78016;BME280;67223;51.102;5.882;2023-04-03T00:06:21;102754.63;;;2.52;73.90
78016;BME280;67223;51.102;5.882;2023-04-03T00:08:46;102755.56;;;2.48;73.78
78016;BME280;67223;51.102;5.882;2023-04-03T00:11:12;102752.00;;;2.51;74.18
78016;BME280;67223;51.102;5.882;2023-04-03T00:13:38;102760.16;;;2.37;74.41
78016;BME280;67223;51.102;5.882;2023-04-03T00:16:04;102749.72;;;2.30;74.64
78016;BME280;67223;51.102;5.882;2023-04-03T00:18:30;102752.00;;;2.49;74.21
78016;BME280;67223;51.102;5.882;2023-04-03T00:20:56;102753.84;;;2.44;74.20
78016;BME280;67223;51.102;5.882;2023-04-03T00:23:21;102755.84;;;2.30;75.18
78016;BME280;67223;51.102;5.882;2023-04-03T00:25:49;102756.72;;;2.32;74.60
78016;BME280;67223;51.102;5.882;2023-04-03T00:28:14;102747.94;;;2.32;75.46
78016;BME280;67223;51.102;5.882;2023-04-03T00:30:40;102757.69;;;2.25;75.72
78016;BME280;67223;51.102;5.882;2023-04-03T00:33:06;102753.84;;;2.44;73.93
78016;BME280;67223;51.102;5.882;2023-04-03T00:35:32;102764.81;;;2.20;75.50
78016;BME280;67223;51.102;5.882;2023-04-03T00:37:59;102756.91;;;2.20;75.97
78016;BME280;67223;51.102;5.882;2023-04-03T00:40:25;102758.72;;;2.16;75.07
78016;BME280;67223;51.102;5.882;2023-04-03T00:42:56;102755.38;;;2.05;75.51
78016;BME280;67223;51.102;5.882;2023-04-03T00:45:26;102755.28;;;2.13;75.67
78016;BME280;67223;51.102;5.882;2023-04-03T00:47:52;102755.13;;;2.22;75.88
78016;BME280;67223;51.102;5.882;2023-04-03T00:50:18;102757.16;;;2.05;75.73
78016;BME280;67223;51.102;5.882;2023-04-03T00:52:45;102761.50;;;2.09;75.29
78016;BME280;67223;51.102;5.882;2023-04-03T00:55:12;102749.16;;;2.09;75.72
78016;BME280;67223;51.102;5.882;2023-04-03T00:57:38;102750.88;;;2.13;76.61
78016;BME280;67223;51.102;5.882;2023-04-03T01:00:10;102743.13;;;2.03;76.89
78016;BME280;67223;51.102;5.882;2023-04-03T01:02:36;102751.03;;;2.03;77.11
78016;BME280;67223;51.102;5.882;2023-04-03T01:05:02;102747.47;;;2.07;75.83
78016;BME280;67223;51.102;5.882;2023-04-03T01:07:30;102760.72;;;2.01;77.01
78016;BME280;67223;51.102;5.882;2023-04-03T01:09:58;102762.81;;;1.79;77.68
78016;BME280;67223;51.102;5.882;2023-04-03T01:12:28;102766.41;;;1.73;78.11
78016;BME280;67223;51.102;5.882;2023-04-03T01:14:57;102768.09;;;1.78;77.15
78016;BME280;67223;51.102;5.882;2023-04-03T01:25:49;102776.28;;;1.56;77.69
78016;BME280;67223;51.102;5.882;2023-04-03T01:28:21;102776.41;;;1.47;78.16
78016;BME280;67223;51.102;5.882;2023-04-03T01:30:53;102778.28;;;1.39;78.19
78016;BME280;67223;51.102;5.882;2023-04-03T01:33:21;102776.47;;;1.41;79.16
78016;BME280;67223;51.102;5.882;2023-04-03T01:35:47;102780.00;;;1.40;78.60
78016;BME280;67223;51.102;5.882;2023-04-03T01:38:12;102778.38;;;1.30;79.17
78016;BME280;67223;51.102;5.882;2023-04-03T01:40:38;102774.72;;;1.42;79.52
78016;BME280;67223;51.102;5.882;2023-04-03T01:43:03;102771.22;;;1.41;78.29
78016;BME280;67223;51.102;5.882;2023-04-03T01:45:28;102774.59;;;1.54;78.88
78016;BME280;67223;51.102;5.882;2023-04-03T01:47:54;102773.97;;;1.34;79.05
78016;BME280;67223;51.102;5.882;2023-04-03T01:50:20;102772.16;;;1.39;79.41
78016;BME280;67223;51.102;5.882;2023-04-03T01:52:45;102767.78;;;1.36;78.55
78016;BME280;67223;51.102;5.882;2023-04-03T01:55:11;102771.41;;;1.26;78.98
78016;BME280;67223;51.102;5.882;2023-04-03T01:57:36;102780.19;;;1.25;79.93
78016;BME280;67223;51.102;5.882;2023-04-03T02:00:02;102780.28;;;1.16;78.83
78016;BME280;67223;51.102;5.882;2023-04-03T02:02:28;102775.16;;;1.07;79.99
78016;BME280;67223;51.102;5.882;2023-04-03T02:04:53;102778.59;;;1.10;79.48
78016;BME280;67223;51.102;5.882;2023-04-03T02:07:20;102769.81;;;1.11;79.28
78016;BME280;67223;51.102;5.882;2023-04-03T02:09:45;102782.00;;;1.20;79.22
78016;BME280;67223;51.102;5.882;2023-04-03T02:12:11;102780.41;;;1.08;80.04
78016;BME280;67223;51.102;5.882;2023-04-03T02:14:36;102779.53;;;1.05;79.87
78016;BME280;67223;51.102;5.882;2023-04-03T02:17:02;102776.97;;;1.00;80.37
78016;BME280;67223;51.102;5.882;2023-04-03T02:19:30;102778.69;;;1.04;79.85
78016;BME280;67223;51.102;5.882;2023-04-03T02:21:56;102781.41;;;0.97;79.60
78016;BME280;67223;51.102;5.882;2023-04-03T02:24:21;102784.03;;;0.97;79.44
78016;BME280;67223;51.102;5.882;2023-04-03T02:26:47;102782.16;;;1.09;79.97
78016;BME280;67223;51.102;5.882;2023-04-03T02:29:12;102782.97;;;1.11;80.33
78016;BME280;67223;51.102;5.882;2023-04-03T02:31:38;102787.38;;;1.11;80.40
78016;BME280;67223;51.102;5.882;2023-04-03T02:34:03;102787.44;;;1.06;79.30
78016;BME280;67223;51.102;5.882;2023-04-03T02:36:29;102787.47;;;1.03;79.55
78016;BME280;67223;51.102;5.882;2023-04-03T02:38:54;102783.97;;;1.04;80.55
78016;BME280;67223;51.102;5.882;2023-04-03T02:41:20;102786.53;;;1.09;79.38
78016;BME280;67223;51.102;5.882;2023-04-03T02:43:46;102783.97;;;1.00;80.56
78016;BME280;67223;51.102;5.882;2023-04-03T02:46:11;102781.28;;;1.06;79.59
78016;BME280;67223;51.102;5.882;2023-04-03T02:48:39;102787.31;;;1.15;79.74
78016;BME280;67223;51.102;5.882;2023-04-03T02:51:05;102782.97;;;1.13;79.18
78016;BME280;67223;51.102;5.882;2023-04-03T02:53:31;102781.03;;;1.28;79.21
78016;BME280;67223;51.102;5.882;2023-04-03T02:55:56;102782.09;;;1.11;79.69
78016;BME280;67223;51.102;5.882;2023-04-03T02:58:21;102778.69;;;1.04;79.36
78016;BME280;67223;51.102;5.882;2023-04-03T03:03:22;102781.34;;;1.03;79.75
78016;BME280;67223;51.102;5.882;2023-04-03T03:05:48;102781.28;;;1.09;79.87
78016;BME280;67223;51.102;5.882;2023-04-03T03:08:13;102780.56;;;0.95;79.31
78016;BME280;67223;51.102;5.882;2023-04-03T03:10:39;102788.34;;;1.02;79.23
78016;BME280;67223;51.102;5.882;2023-04-03T03:13:04;102783.97;;;1.03;79.61
78016;BME280;67223;51.102;5.882;2023-04-03T03:15:29;102790.88;;;1.10;80.19
78016;BME280;67223;51.102;5.882;2023-04-03T03:17:55;102798.03;;;0.97;79.21
78016;BME280;67223;51.102;5.882;2023-04-03T03:20:20;102790.03;;;1.09;80.31
78016;BME280;67223;51.102;5.882;2023-04-03T03:22:46;102791.81;;;1.06;79.07
78016;BME280;67223;51.102;5.882;2023-04-03T03:25:12;102789.16;;;1.09;79.35
78016;BME280;67223;51.102;5.882;2023-04-03T03:27:37;102787.41;;;1.08;80.11
78016;BME280;67223;51.102;5.882;2023-04-03T03:30:03;102793.50;;;1.14;78.99
78016;BME280;67223;51.102;5.882;2023-04-03T03:32:29;102787.47;;;1.00;80.38
78016;BME280;67223;51.102;5.882;2023-04-03T03:34:55;102786.47;;;1.13;80.11
78016;BME280;67223;51.102;5.882;2023-04-03T03:37:20;102790.88;;;1.13;79.73
78016;BME280;67223;51.102;5.882;2023-04-03T03:39:45;102787.38;;;1.11;79.54
78016;BME280;67223;51.102;5.882;2023-04-03T03:42:11;102788.31;;;1.07;79.13
78016;BME280;67223;51.102;5.882;2023-04-03T03:44:36;102787.31;;;1.18;79.18
78016;BME280;67223;51.102;5.882;2023-04-03T03:47:02;102794.97;;;1.35;79.40
78016;BME280;67223;51.102;5.882;2023-04-03T03:49:28;102794.22;;;1.27;79.24
78016;BME280;67223;51.102;5.882;2023-04-03T03:51:53;102791.63;;;1.21;78.22
78016;BME280;67223;51.102;5.882;2023-04-03T03:54:19;102796.06;;;1.19;79.43
78016;BME280;67223;51.102;5.882;2023-04-03T03:56:44;102792.63;;;1.14;78.95
78016;BME280;67223;51.102;5.882;2023-04-03T03:59:12;102796.91;;;1.21;79.25
78016;BME280;67223;51.102;5.882;2023-04-03T04:01:37;102789.16;;;1.09;78.66
78016;BME280;67223;51.102;5.882;2023-04-03T04:04:03;102792.63;;;1.12;79.13
78016;BME280;67223;51.102;5.882;2023-04-03T04:06:28;102787.44;;;1.05;80.33
78016;BME280;67223;51.102;5.882;2023-04-03T04:08:54;102795.25;;;1.14;79.01
78016;BME280;67223;51.102;5.882;2023-04-03T04:11:19;102796.13;;;1.14;79.37
78016;BME280;67223;51.102;5.882;2023-04-03T04:13:46;102797.88;;;1.14;79.11
78016;BME280;67223;51.102;5.882;2023-04-03T04:16:12;102799.69;;;1.06;79.17
78016;BME280;67223;51.102;5.882;2023-04-03T04:18:37;102804.84;;;1.15;79.20
78016;BME280;67223;51.102;5.882;2023-04-03T04:21:02;102800.59;;;1.05;80.58
78016;BME280;67223;51.102;5.882;2023-04-03T04:23:28;102799.75;;;1.03;79.75
78016;BME280;67223;51.102;5.882;2023-04-03T04:25:53;102801.56;;;0.96;79.21
78016;BME280;67223;51.102;5.882;2023-04-03T04:28:19;102805.00;;;1.01;79.34
78016;BME280;67223;51.102;5.882;2023-04-03T04:30:45;102801.59;;;0.95;80.15
78016;BME280;67223;51.102;5.882;2023-04-03T04:33:10;102805.00;;;1.03;79.43
78016;BME280;67223;51.102;5.882;2023-04-03T04:35:36;102807.66;;;1.00;79.46
78016;BME280;67223;51.102;5.882;2023-04-03T04:38:02;102815.63;;;0.92;80.57
78016;BME280;67223;51.102;5.882;2023-04-03T04:40:28;102805.16;;;0.88;81.24
78016;BME280;67223;51.102;5.882;2023-04-03T04:42:53;102800.72;;;0.93;80.99
78016;BME280;67223;51.102;5.882;2023-04-03T04:45:19;102805.06;;;0.97;80.29
78016;BME280;67223;51.102;5.882;2023-04-03T04:47:44;102803.25;;;1.00;80.28
78016;BME280;67223;51.102;5.882;2023-04-03T04:50:10;102811.25;;;0.94;79.72
78016;BME280;67223;51.102;5.882;2023-04-03T04:52:37;102817.41;;;0.90;80.24
78016;BME280;67223;51.102;5.882;2023-04-03T04:55:03;102816.41;;;1.03;80.32
78016;BME280;67223;51.102;5.882;2023-04-03T04:57:29;102822.59;;;0.98;80.32
78016;BME280;67223;51.102;5.882;2023-04-03T04:59:54;102818.31;;;0.88;79.99
78016;BME280;67223;51.102;5.882;2023-04-03T05:02:20;102832.25;;;0.96;80.13
78016;BME280;67223;51.102;5.882;2023-04-03T05:04:45;102828.78;;;0.92;80.02
78016;BME280;67223;51.102;5.882;2023-04-03T05:07:11;102832.25;;;0.96;79.95
78016;BME280;67223;51.102;5.882;2023-04-03T05:09:36;102832.34;;;0.86;80.40
78016;BME280;67223;51.102;5.882;2023-04-03T05:12:02;102833.22;;;0.89;79.30
78016;BME280;67223;51.102;5.882;2023-04-03T05:14:28;102837.59;;;0.90;80.23
78016;BME280;67223;51.102;5.882;2023-04-03T05:16:54;102845.47;;;0.90;80.05
78016;BME280;67223;51.102;5.882;2023-04-03T05:19:20;102835.84;;;0.89;79.17
78016;BME280;67223;51.102;5.882;2023-04-03T05:21:46;102848.94;;;0.95;79.47
78016;BME280;67223;51.102;5.882;2023-04-03T05:24:12;102841.78;;;1.06;79.61
78016;BME280;67223;51.102;5.882;2023-04-03T05:26:37;102850.50;;;1.11;80.09
78016;BME280;67223;51.102;5.882;2023-04-03T05:29:03;102845.44;;;0.94;79.26
78016;BME280;67223;51.102;5.882;2023-04-03T05:31:29;102845.41;;;0.99;80.61
78016;BME280;67223;51.102;5.882;2023-04-03T05:33:55;102846.13;;;1.13;80.72
78016;BME280;67223;51.102;5.882;2023-04-03T05:36:20;102842.75;;;0.97;80.49
78016;BME280;67223;51.102;5.882;2023-04-03T05:38:46;102843.59;;;1.01;79.40
78016;BME280;67223;51.102;5.882;2023-04-03T05:41:12;102841.84;;;1.04;80.20
78016;BME280;67223;51.102;5.882;2023-04-03T05:43:37;102847.94;;;1.08;79.60
78016;BME280;67223;51.102;5.882;2023-04-03T05:46:08;102847.09;;;1.03;78.30
78016;BME280;67223;51.102;5.882;2023-04-03T05:48:33;102860.09;;;1.18;79.48
78016;BME280;67223;51.102;5.882;2023-04-03T05:50:59;102861.03;;;1.11;79.18
78016;BME280;67223;51.102;5.882;2023-04-03T05:53:27;102860.09;;;1.16;79.08
78016;BME280;67223;51.102;5.882;2023-04-03T05:55:53;102872.34;;;1.22;78.10
78016;BME280;67223;51.102;5.882;2023-04-03T05:58:19;102869.66;;;1.25;77.84
78016;BME280;67223;51.102;5.882;2023-04-03T06:00:44;102866.09;;;1.34;78.95
78016;BME280;67223;51.102;5.882;2023-04-03T06:03:10;102874.91;;;1.29;77.53
78016;BME280;67223;51.102;5.882;2023-04-03T06:05:36;102869.59;;;1.31;78.96
78016;BME280;67223;51.102;5.882;2023-04-03T06:08:01;102868.78;;;1.29;78.33
78016;BME280;67223;51.102;5.882;2023-04-03T06:10:28;102872.94;;;1.45;78.63
78016;BME280;67223;51.102;5.882;2023-04-03T06:12:53;102864.16;;;1.49;77.53
78016;BME280;67223;51.102;5.882;2023-04-03T06:15:19;102862.34;;;1.51;78.67
78016;BME280;67223;51.102;5.882;2023-04-03T06:17:45;102865.84;;;1.53;78.13
78016;BME280;67223;51.102;5.882;2023-04-03T06:20:11;102864.00;;;1.63;77.69
78016;BME280;67223;51.102;5.882;2023-04-03T06:22:37;102872.53;;;1.82;76.86
78016;BME280;67223;51.102;5.882;2023-04-03T06:25:03;102867.13;;;1.91;76.80
78016;BME280;67223;51.102;5.882;2023-04-03T06:27:30;102870.25;;;2.20;74.97
78016;BME280;67223;51.102;5.882;2023-04-03T06:29:55;102871.97;;;2.23;74.44
78016;BME280;67223;51.102;5.882;2023-04-03T06:32:21;102876.22;;;2.33;75.06
78016;BME280;67223;51.102;5.882;2023-04-03T06:34:46;102875.69;;;2.68;74.33
78016;BME280;67223;51.102;5.882;2023-04-03T06:37:16;102875.25;;;2.93;73.06
78016;BME280;67223;51.102;5.882;2023-04-03T06:39:42;102874.94;;;3.10;72.72
78016;BME280;67223;51.102;5.882;2023-04-03T06:42:08;102874.25;;;2.99;72.09
78016;BME280;67223;51.102;5.882;2023-04-03T06:44:33;102882.69;;;3.19;71.45
78016;BME280;67223;51.102;5.882;2023-04-03T06:47:00;102886.00;;;3.30;71.45
78016;BME280;67223;51.102;5.882;2023-04-03T06:49:25;102885.91;;;3.36;70.81
78016;BME280;67223;51.102;5.882;2023-04-03T06:51:51;102890.03;;;3.50;70.58
78016;BME280;67223;51.102;5.882;2023-04-03T06:54:17;102893.22;;;3.68;70.66
78016;BME280;67223;51.102;5.882;2023-04-03T06:56:42;102893.69;;;3.88;69.87
78016;BME280;67223;51.102;5.882;2023-04-03T06:59:09;102896.72;;;4.10;69.28
78016;BME280;67223;51.102;5.882;2023-04-03T07:01:35;102895.13;;;4.03;67.92
78016;BME280;67223;51.102;5.882;2023-04-03T07:04:00;102900.25;;;4.09;68.00
78016;BME280;67223;51.102;5.882;2023-04-03T07:06:26;102901.53;;;4.31;66.87
78016;BME280;67223;51.102;5.882;2023-04-03T07:08:52;102905.44;;;4.14;67.15
78016;BME280;67223;51.102;5.882;2023-04-03T07:11:17;102897.59;;;4.49;66.89
78016;BME280;67223;51.102;5.882;2023-04-03T07:13:43;102906.41;;;4.50;66.40
78016;BME280;67223;51.102;5.882;2023-04-03T07:16:09;102900.75;;;4.28;66.33
78016;BME280;67223;51.102;5.882;2023-04-03T07:18:34;102913.00;;;4.69;66.33
78016;BME280;67223;51.102;5.882;2023-04-03T07:21:00;102907.66;;;5.07;65.08
78016;BME280;67223;51.102;5.882;2023-04-03T07:23:26;102919.06;;;5.09;65.34
78016;BME280;67223;51.102;5.882;2023-04-03T07:25:52;102916.88;;;5.27;64.52
78016;BME280;67223;51.102;5.882;2023-04-03T07:28:19;102915.22;;;5.55;62.77
78016;BME280;67223;51.102;5.882;2023-04-03T07:30:50;102914.63;;;5.44;62.05
78016;BME280;67223;51.102;5.882;2023-04-03T07:33:20;102915.78;;;5.66;62.49
78016;BME280;67223;51.102;5.882;2023-04-03T07:35:46;102918.94;;;5.79;62.39
78016;BME280;67223;51.102;5.882;2023-04-03T07:38:12;102923.19;;;5.86;61.32
78016;BME280;67223;51.102;5.882;2023-04-03T07:40:38;102916.19;;;6.14;60.94
78016;BME280;67223;51.102;5.882;2023-04-03T07:43:04;102918.75;;;5.86;60.35
78016;BME280;67223;51.102;5.882;2023-04-03T07:45:31;102922.59;;;6.07;61.06
78016;BME280;67223;51.102;5.882;2023-04-03T07:47:57;102922.88;;;6.55;60.62
78016;BME280;67223;51.102;5.882;2023-04-03T07:50:22;102920.81;;;7.17;58.85
78016;BME280;67223;51.102;5.882;2023-04-03T07:52:48;102925.03;;;7.24;57.42
78016;BME280;67223;51.102;5.882;2023-04-03T07:55:16;102926.91;;;6.95;56.89
78016;BME280;67223;51.102;5.882;2023-04-03T07:57:41;102920.00;;;6.89;57.08
78016;BME280;67223;51.102;5.882;2023-04-03T08:00:08;102924.50;;;7.88;56.70
78016;BME280;67223;51.102;5.882;2023-04-03T08:02:34;102918.84;;;8.67;53.66
78016;BME280;67223;51.102;5.882;2023-04-03T08:04:59;102921.16;;;8.29;53.05
78016;BME280;67223;51.102;5.882;2023-04-03T08:07:25;102925.69;;;8.94;52.76
78016;BME280;67223;51.102;5.882;2023-04-03T08:09:51;102927.25;;;7.86;52.43
78016;BME280;67223;51.102;5.882;2023-04-03T08:12:17;102923.97;;;8.49;52.38
78016;BME280;67223;51.102;5.882;2023-04-03T08:14:42;102926.69;;;8.91;51.90
78016;BME280;67223;51.102;5.882;2023-04-03T08:17:08;102923.22;;;9.51;51.23
78016;BME280;67223;51.102;5.882;2023-04-03T08:19:37;102923.78;;;9.99;48.88
78016;BME280;67223;51.102;5.882;2023-04-03T08:22:03;102927.03;;;9.46;48.11
78016;BME280;67223;51.102;5.882;2023-04-03T08:24:31;102933.41;;;9.82;49.48
78016;BME280;67223;51.102;5.882;2023-04-03T08:26:56;102931.25;;;10.29;48.16
78016;BME280;67223;51.102;5.882;2023-04-03T08:29:22;102938.38;;;9.51;48.22
78016;BME280;67223;51.102;5.882;2023-04-03T08:31:48;102936.63;;;9.30;48.84
78016;BME280;67223;51.102;5.882;2023-04-03T08:34:14;102933.03;;;11.02;47.06
78016;BME280;67223;51.102;5.882;2023-04-03T08:36:40;102938.88;;;10.74;45.04
78016;BME280;67223;51.102;5.882;2023-04-03T08:39:06;102934.28;;;10.02;43.86
78016;BME280;67223;51.102;5.882;2023-04-03T08:41:36;102938.50;;;11.01;44.39
78016;BME280;67223;51.102;5.882;2023-04-03T08:44:25;102938.78;;;10.76;41.95
78016;BME280;67223;51.102;5.882;2023-04-03T08:47:31;102948.16;;;11.03;42.33
78016;BME280;67223;51.102;5.882;2023-04-03T08:49:59;102943.38;;;11.79;38.38
78016;BME280;67223;51.102;5.882;2023-04-03T08:54:55;102941.53;;;12.45;37.69
78016;BME280;67223;51.102;5.882;2023-04-03T08:57:30;102940.28;;;11.86;39.00
78016;BME280;67223;51.102;5.882;2023-04-03T09:00:23;102935.66;;;11.38;36.36
78016;BME280;67223;51.102;5.882;2023-04-03T09:02:51;102944.00;;;12.17;36.31
78016;BME280;67223;51.102;5.882;2023-04-03T09:05:42;102933.38;;;11.82;36.06
78016;BME280;67223;51.102;5.882;2023-04-03T09:08:48;102936.78;;;12.50;36.21
78016;BME280;67223;51.102;5.882;2023-04-03T09:11:24;102948.94;;;12.87;36.66
78016;BME280;67223;51.102;5.882;2023-04-03T09:19:21;102936.69;;;12.67;34.45
78016;BME280;67223;51.102;5.882;2023-04-03T09:21:47;102927.44;;;12.57;32.86
78016;BME280;67223;51.102;5.882;2023-04-03T09:24:15;102928.06;;;13.08;33.44
78016;BME280;67223;51.102;5.882;2023-04-03T09:26:54;102924.22;;;12.50;31.68
78016;BME280;67223;51.102;5.882;2023-04-03T09:29:24;102922.88;;;13.20;30.74
78016;BME280;67223;51.102;5.882;2023-04-03T09:31:55;102929.56;;;13.43;27.65
78016;BME280;67223;51.102;5.882;2023-04-03T09:34:25;102930.03;;;12.74;26.70
78016;BME280;67223;51.102;5.882;2023-04-03T09:36:54;102927.47;;;13.18;28.77
78016;BME280;67223;51.102;5.882;2023-04-03T09:39:26;102925.50;;;12.90;27.17
78016;BME280;67223;51.102;5.882;2023-04-03T09:42:03;102930.47;;;13.28;27.06
78016;BME280;67223;51.102;5.882;2023-04-03T09:44:33;102926.28;;;13.82;27.66
78016;BME280;67223;51.102;5.882;2023-04-03T09:46:59;102929.81;;;14.25;27.74
78016;BME280;67223;51.102;5.882;2023-04-03T09:49:24;102928.75;;;14.28;25.25
78016;BME280;67223;51.102;5.882;2023-04-03T09:51:50;102922.25;;;13.89;25.32
78016;BME280;67223;51.102;5.882;2023-04-03T09:54:34;102929.16;;;13.79;26.25
78016;BME280;67223;51.102;5.882;2023-04-03T09:57:12;102927.97;;;14.26;26.14
78016;BME280;67223;51.102;5.882;2023-04-03T09:59:58;102921.09;;;13.93;25.60
78016;BME280;67223;51.102;5.882;2023-04-03T10:02:38;102927.13;;;13.97;25.57
78016;BME280;67223;51.102;5.882;2023-04-03T10:05:25;102917.91;;;13.58;24.98
78016;BME280;67223;51.102;5.882;2023-04-03T10:07:51;102927.59;;;14.46;24.17
78016;BME280;67223;51.102;5.882;2023-04-03T10:10:21;102927.47;;;14.61;25.11
78016;BME280;67223;51.102;5.882;2023-04-03T10:13:07;102923.00;;;14.34;25.51
78016;BME280;67223;51.102;5.882;2023-04-03T10:15:39;102921.97;;;14.77;25.14
78016;BME280;67223;51.102;5.882;2023-04-03T10:18:18;102921.75;;;14.11;26.20
78016;BME280;67223;51.102;5.882;2023-04-03T10:20:48;102913.81;;;14.79;26.25
78016;BME280;67223;51.102;5.882;2023-04-03T10:23:40;102925.22;;;13.85;25.97
78016;BME280;67223;51.102;5.882;2023-04-03T10:29:16;102918.69;;;14.17;26.23
78016;BME280;67223;51.102;5.882;2023-04-03T10:31:55;102908.97;;;14.57;27.31
78016;BME280;67223;51.102;5.882;2023-04-03T10:34:33;102905.44;;;13.86;25.82
78016;BME280;67223;51.102;5.882;2023-04-03T10:39:45;102899.03;;;14.72;25.00
78016;BME280;67223;51.102;5.882;2023-04-03T10:42:46;102892.44;;;14.63;24.06
78016;BME280;67223;51.102;5.882;2023-04-03T10:48:37;102895.47;;;14.98;25.61
78016;BME280;67223;51.102;5.882;2023-04-03T10:51:30;102892.59;;;15.14;25.60
78016;BME280;67223;51.102;5.882;2023-04-03T10:54:11;102888.44;;;14.95;24.55
78016;BME280;67223;51.102;5.882;2023-04-03T10:56:50;102891.16;;;15.60;25.25
78016;BME280;67223;51.102;5.882;2023-04-03T11:02:07;102880.53;;;15.59;23.77
78016;BME280;67223;51.102;5.882;2023-04-03T11:04:39;102870.47;;;14.96;23.79
78016;BME280;67223;51.102;5.882;2023-04-03T11:07:16;102874.00;;;15.36;25.68
78016;BME280;67223;51.102;5.882;2023-04-03T11:09:46;102877.22;;;15.41;24.97
78016;BME280;67223;51.102;5.882;2023-04-03T11:12:46;102875.19;;;15.95;23.34
78016;BME280;67223;51.102;5.882;2023-04-03T11:15:17;102864.34;;;15.84;24.52
78016;BME280;67223;51.102;5.882;2023-04-03T11:17:48;102869.44;;;14.31;24.40
78016;BME280;67223;51.102;5.882;2023-04-03T11:20:20;102873.44;;;15.18;24.66
78016;BME280;67223;51.102;5.882;2023-04-03T11:22:57;102861.06;;;15.41;24.95
78016;BME280;67223;51.102;5.882;2023-04-03T11:25:25;102866.84;;;15.62;24.65
78016;BME280;67223;51.102;5.882;2023-04-03T11:28:14;102861.19;;;15.14;24.56
78016;BME280;67223;51.102;5.882;2023-04-03T11:30:47;102858.34;;;15.03;24.32
78016;BME280;67223;51.102;5.882;2023-04-03T11:33:27;102863.28;;;14.43;24.45
78016;BME280;67223;51.102;5.882;2023-04-03T11:36:05;102858.94;;;13.71;25.50
78016;BME280;67223;51.102;5.882;2023-04-03T11:38:34;102851.69;;;14.28;25.01
78016;BME280;67223;51.102;5.882;2023-04-03T11:41:02;102838.31;;;14.41;25.16
78016;BME280;67223;51.102;5.882;2023-04-03T11:43:32;102840.63;;;14.47;25.77
78016;BME280;67223;51.102;5.882;2023-04-03T11:46:03;102838.75;;;14.61;26.45
78016;BME280;67223;51.102;5.882;2023-04-03T11:50:56;102828.84;;;14.89;25.30
78016;BME280;67223;51.102;5.882;2023-04-03T11:53:39;102831.53;;;14.21;25.36
78016;BME280;67223;51.102;5.882;2023-04-03T12:01:44;102836.06;;;13.21;28.02
78016;BME280;67223;51.102;5.882;2023-04-03T12:04:12;102829.25;;;13.16;27.96
78016;BME280;67223;51.102;5.882;2023-04-03T12:11:57;102828.69;;;12.65;28.34
78016;BME280;67223;51.102;5.882;2023-04-03T12:14:24;102822.75;;;12.90;29.41
78016;BME280;67223;51.102;5.882;2023-04-03T12:16:52;102808.31;;;12.47;28.58
78016;BME280;67223;51.102;5.882;2023-04-03T12:19:38;102797.06;;;12.40;28.18
78016;BME280;67223;51.102;5.882;2023-04-03T12:22:17;102805.44;;;11.72;28.82
78016;BME280;67223;51.102;5.882;2023-04-03T12:24:50;102807.91;;;12.39;30.09
78016;BME280;67223;51.102;5.882;2023-04-03T12:27:24;102802.09;;;12.46;28.55
78016;BME280;67223;51.102;5.882;2023-04-03T12:32:46;102792.22;;;11.69;30.66
78016;BME280;67223;51.102;5.882;2023-04-03T12:35:21;102798.91;;;12.40;30.41
78016;BME280;67223;51.102;5.882;2023-04-03T12:46:28;102789.59;;;11.84;29.53
78016;BME280;67223;51.102;5.882;2023-04-03T12:48:59;102786.06;;;12.15;30.12
78016;BME280;67223;51.102;5.882;2023-04-03T12:51:37;102784.34;;;12.14;31.60
78016;BME280;67223;51.102;5.882;2023-04-03T12:54:19;102773.63;;;12.14;31.55
78016;BME280;67223;51.102;5.882;2023-04-03T12:56:47;102773.97;;;11.77;32.79
78016;BME280;67223;51.102;5.882;2023-04-03T12:59:24;102776.84;;;11.23;32.27
78016;BME280;67223;51.102;5.882;2023-04-03T13:01:58;102764.75;;;11.49;32.17
78016;BME280;67223;51.102;5.882;2023-04-03T13:04:24;102763.47;;;11.23;31.73
78016;BME280;67223;51.102;5.882;2023-04-03T13:06:51;102761.22;;;11.49;32.76
78016;BME280;67223;51.102;5.882;2023-04-03T13:09:27;102775.41;;;11.34;32.16
78016;BME280;67223;51.102;5.882;2023-04-03T13:12:02;102748.44;;;11.21;34.14
78016;BME280;67223;51.102;5.882;2023-04-03T13:14:29;102747.97;;;11.30;35.79
78016;BME280;67223;51.102;5.882;2023-04-03T13:17:03;102748.66;;;11.34;35.05
78016;BME280;67223;51.102;5.882;2023-04-03T13:19:29;102744.69;;;10.75;33.47
78016;BME280;67223;51.102;5.882;2023-04-03T13:22:04;102740.06;;;11.44;33.83
78016;BME280;67223;51.102;5.882;2023-04-03T13:24:34;102739.94;;;10.97;32.92
78016;BME280;67223;51.102;5.882;2023-04-03T13:27:00;102744.19;;;10.84;33.78
78016;BME280;67223;51.102;5.882;2023-04-03T13:29:33;102726.09;;;10.89;35.52
78016;BME280;67223;51.102;5.882;2023-04-03T13:32:00;102730.19;;;10.62;34.83
78016;BME280;67223;51.102;5.882;2023-04-03T13:34:29;102732.56;;;10.68;35.29
78016;BME280;67223;51.102;5.882;2023-04-03T13:37:01;102734.91;;;10.57;35.08
78016;BME280;67223;51.102;5.882;2023-04-03T13:39:32;102739.16;;;10.78;35.61
78016;BME280;67223;51.102;5.882;2023-04-03T13:42:15;102741.34;;;10.87;35.49
78016;BME280;67223;51.102;5.882;2023-04-03T13:44:42;102733.00;;;10.93;33.76
78016;BME280;67223;51.102;5.882;2023-04-03T13:49:38;102727.38;;;10.48;33.68
78016;BME280;67223;51.102;5.882;2023-04-03T13:54:53;102747.25;;;10.42;34.35
78016;BME280;67223;51.102;5.882;2023-04-03T13:57:20;102727.13;;;10.52;34.44
78016;BME280;67223;51.102;5.882;2023-04-03T13:59:46;102734.06;;;10.39;34.63
78016;BME280;67223;51.102;5.882;2023-04-03T14:02:22;102722.19;;;10.09;33.04
78016;BME280;67223;51.102;5.882;2023-04-03T14:04:53;102721.03;;;10.14;33.98
78016;BME280;67223;51.102;5.882;2023-04-03T14:07:23;102721.63;;;10.21;34.41